createdAt,value
2023-03-16T00:01:43.629Z,17.44
2023-03-16T00:04:10.157Z,17.42
2023-03-16T00:06:36.752Z,17.41
2023-03-16T00:09:04.313Z,17.40
2023-03-16T00:11:30.878Z,17.40
2023-03-16T00:13:58.685Z,17.38
2023-03-16T00:16:25.380Z,17.37
2023-03-16T00:18:51.953Z,17.35
2023-03-16T00:21:18.485Z,17.35
2023-03-16T00:23:45.077Z,17.35
2023-03-16T00:26:13.140Z,17.35
2023-03-16T00:28:39.991Z,17.34
2023-03-16T00:31:08.702Z,17.33
2023-03-16T00:33:37.964Z,17.33
2023-03-16T00:36:09.234Z,17.33
2023-03-16T00:38:44.894Z,17.32
2023-03-16T00:41:14.253Z,17.31
2023-03-16T00:43:42.708Z,17.28
2023-03-16T00:46:11.459Z,17.29
2023-03-16T00:48:42.452Z,17.27
2023-03-16T00:51:12.860Z,17.26
2023-03-16T00:53:41.314Z,17.25
2023-03-16T00:56:08.671Z,17.23
2023-03-16T00:58:39.172Z,17.22
2023-03-16T01:01:11.884Z,17.21
2023-03-16T01:03:38.480Z,17.21
2023-03-16T01:06:07.149Z,17.21
2023-03-16T01:08:33.661Z,17.21
2023-03-16T01:11:10.397Z,17.18
2023-03-16T01:13:38.512Z,17.18
2023-03-16T01:16:05.770Z,17.17
2023-03-16T01:18:35.336Z,17.17
2023-03-16T01:21:03.526Z,17.15
2023-03-16T01:23:31.344Z,17.13
2023-03-16T01:25:59.132Z,17.13
2023-03-16T01:28:28.216Z,17.11
2023-03-16T01:30:58.888Z,17.11
2023-03-16T01:33:26.915Z,17.09
2023-03-16T01:35:57.485Z,17.09
2023-03-16T01:38:24.705Z,17.07
2023-03-16T01:40:52.512Z,17.07
2023-03-16T01:43:20.933Z,17.07
2023-03-16T01:46:05.940Z,17.04
2023-03-16T01:48:38.075Z,17.06
2023-03-16T01:51:11.828Z,17.02
2023-03-16T01:53:40.625Z,17.00
2023-03-16T01:56:13.178Z,17.03
2023-03-16T01:58:42.959Z,17.02
2023-03-16T02:01:10.738Z,17.01
2023-03-16T02:03:37.364Z,17.00
2023-03-16T02:06:12.871Z,16.97
2023-03-16T02:08:40.573Z,16.95
2023-03-16T02:11:09.638Z,16.95
2023-03-16T02:13:36.983Z,16.94
2023-03-16T02:16:06.891Z,16.94
2023-03-16T02:18:34.052Z,16.93
2023-03-16T02:21:20.606Z,16.91
2023-03-16T02:23:48.494Z,16.92
2023-03-16T02:26:27.110Z,16.91
2023-03-16T02:29:16.971Z,16.90
2023-03-16T02:31:44.685Z,16.90
2023-03-16T02:34:13.489Z,16.89
2023-03-16T02:36:42.219Z,16.90
2023-03-16T02:39:08.729Z,16.89
2023-03-16T02:41:35.313Z,16.87
2023-03-16T02:44:10.810Z,16.88
2023-03-16T02:46:38.272Z,16.88
2023-03-16T02:49:12.157Z,16.87
2023-03-16T02:51:38.697Z,16.87
2023-03-16T02:54:05.283Z,16.85
2023-03-16T02:56:31.814Z,16.84
2023-03-16T02:58:58.537Z,16.83
2023-03-16T03:01:25.288Z,16.83
2023-03-16T03:03:51.869Z,16.81
2023-03-16T03:06:18.618Z,16.82
2023-03-16T03:08:45.146Z,16.82
2023-03-16T03:11:11.650Z,16.81
2023-03-16T03:13:39.210Z,16.80
2023-03-16T03:16:06.104Z,16.78
2023-03-16T03:18:34.611Z,16.77
2023-03-16T03:21:01.225Z,16.78
2023-03-16T03:23:27.801Z,16.76
2023-03-16T03:25:58.737Z,16.74
2023-03-16T03:28:25.820Z,16.72
2023-03-16T03:30:52.361Z,16.72
2023-03-16T03:33:19.549Z,16.71
2023-03-16T03:35:46.133Z,16.71
2023-03-16T03:38:12.714Z,16.69
2023-03-16T03:40:39.266Z,16.69
2023-03-16T03:43:06.367Z,16.67
2023-03-16T03:45:33.043Z,16.68
2023-03-16T03:47:59.685Z,16.67
2023-03-16T03:50:26.595Z,16.67
2023-03-16T03:52:53.425Z,16.67
2023-03-16T03:55:19.958Z,16.66
2023-03-16T03:57:46.466Z,16.65
2023-03-16T04:00:13.567Z,16.63
2023-03-16T04:02:40.802Z,16.62
2023-03-16T04:05:08.346Z,16.63
2023-03-16T04:07:34.974Z,16.62
2023-03-16T04:10:01.507Z,16.62
2023-03-16T04:12:28.120Z,16.62
2023-03-16T04:14:54.684Z,16.61
2023-03-16T04:17:21.247Z,16.60
2023-03-16T04:19:48.114Z,16.59
2023-03-16T04:22:14.688Z,16.59
2023-03-16T04:24:43.212Z,16.59
2023-03-16T04:27:12.074Z,16.57
2023-03-16T04:29:39.082Z,16.56
2023-03-16T04:32:07.051Z,16.55
2023-03-16T04:34:34.422Z,16.53
2023-03-16T04:37:02.252Z,16.53
2023-03-16T04:39:28.820Z,16.54
2023-03-16T04:41:55.451Z,16.53
2023-03-16T04:44:21.978Z,16.53
2023-03-16T04:46:48.495Z,16.52
2023-03-16T04:49:14.990Z,16.51
2023-03-16T04:51:42.531Z,16.50
2023-03-16T04:54:09.335Z,16.50
2023-03-16T04:56:35.950Z,16.49
2023-03-16T04:59:02.603Z,16.47
2023-03-16T05:01:29.229Z,16.46
2023-03-16T05:03:57.492Z,16.46
2023-03-16T05:06:25.076Z,16.44
2023-03-16T05:08:51.555Z,16.43
2023-03-16T05:11:18.122Z,16.43
2023-03-16T05:13:44.626Z,16.42
2023-03-16T05:16:11.160Z,16.42
2023-03-16T05:18:37.725Z,16.42
2023-03-16T05:21:04.459Z,16.41
2023-03-16T05:23:31.529Z,16.41
2023-03-16T05:26:01.008Z,16.40
2023-03-16T05:28:27.863Z,16.40
2023-03-16T05:30:54.785Z,16.37
2023-03-16T05:33:21.616Z,16.39
2023-03-16T05:35:48.329Z,16.38
2023-03-16T05:38:15.797Z,16.37
2023-03-16T05:40:42.388Z,16.37
2023-03-16T05:43:08.958Z,16.37
2023-03-16T05:45:35.465Z,16.36
2023-03-16T05:48:01.961Z,16.35
2023-03-16T05:50:29.027Z,16.35
2023-03-16T05:52:55.713Z,16.34
2023-03-16T05:55:22.249Z,16.33
2023-03-16T05:57:48.756Z,16.34
2023-03-16T06:00:16.927Z,16.32
2023-03-16T06:02:47.556Z,16.30
2023-03-16T06:05:14.463Z,16.30
2023-03-16T06:07:41.707Z,16.29
2023-03-16T06:10:09.326Z,16.27
2023-03-16T06:12:35.920Z,16.28
2023-03-16T06:15:03.094Z,16.27
2023-03-16T06:17:29.802Z,16.26
2023-03-16T06:19:56.332Z,16.25
2023-03-16T06:22:23.976Z,16.25
2023-03-16T06:24:51.157Z,16.25
2023-03-16T06:27:20.280Z,16.25
2023-03-16T06:29:47.894Z,16.24
2023-03-16T06:32:14.677Z,16.23
2023-03-16T06:34:41.708Z,16.28
2023-03-16T06:37:08.344Z,16.35
2023-03-16T06:39:34.913Z,16.41
2023-03-16T06:42:01.441Z,16.48
2023-03-16T06:44:28.034Z,16.57
2023-03-16T06:46:54.568Z,16.67
2023-03-16T06:49:21.282Z,16.77
2023-03-16T06:51:47.853Z,16.87
2023-03-16T06:54:14.773Z,16.95
2023-03-16T06:56:41.348Z,17.03
2023-03-16T06:59:08.131Z,17.10
2023-03-16T07:01:34.685Z,17.16
2023-03-16T07:04:04.094Z,17.21
2023-03-16T07:06:34.006Z,17.24
2023-03-16T07:09:01.436Z,17.24
2023-03-16T07:11:30.809Z,17.24
2023-03-16T07:13:58.584Z,17.23
2023-03-16T07:16:25.794Z,17.21
2023-03-16T07:18:54.289Z,17.19
2023-03-16T07:21:21.718Z,17.16
2023-03-16T07:23:48.316Z,17.12
2023-03-16T07:26:14.913Z,17.09
2023-03-16T07:28:41.627Z,17.07
2023-03-16T07:31:09.456Z,17.03
2023-03-16T07:33:37.485Z,16.99
2023-03-16T07:36:05.603Z,16.94
2023-03-16T07:38:33.785Z,16.89
2023-03-16T07:41:01.117Z,16.85
2023-03-16T07:43:27.909Z,16.78
2023-03-16T07:45:54.792Z,16.72
2023-03-16T07:48:21.518Z,16.68
2023-03-16T07:50:48.578Z,16.63
2023-03-16T07:53:15.664Z,16.58
2023-03-16T07:55:43.082Z,16.53
2023-03-16T07:58:10.812Z,16.47
2023-03-16T08:00:37.622Z,16.42
2023-03-16T08:03:04.268Z,16.38
2023-03-16T08:05:32.566Z,16.36
2023-03-16T08:07:59.845Z,16.34
2023-03-16T08:10:27.259Z,16.29
2023-03-16T08:12:53.973Z,16.28
2023-03-16T08:15:21.576Z,16.28
2023-03-16T08:17:48.121Z,16.22
2023-03-16T08:20:15.498Z,16.26
2023-03-16T08:22:46.097Z,16.23
2023-03-16T08:25:14.206Z,16.26
2023-03-16T08:27:43.002Z,16.32
2023-03-16T08:30:12.450Z,16.34
2023-03-16T08:32:41.031Z,16.36
2023-03-16T08:35:13.515Z,16.37
2023-03-16T08:37:41.429Z,16.40
2023-03-16T08:40:15.693Z,16.40
2023-03-16T08:42:43.084Z,16.41
2023-03-16T08:45:13.492Z,16.42
2023-03-16T08:47:40.527Z,16.44
2023-03-16T08:50:09.492Z,16.45
2023-03-16T08:52:40.740Z,16.48
2023-03-16T08:55:09.652Z,16.49
2023-03-16T08:57:37.428Z,16.49
2023-03-16T09:00:13.462Z,16.50
2023-03-16T09:02:41.607Z,16.51
2023-03-16T09:05:14.793Z,16.51
2023-03-16T09:07:42.309Z,16.52
2023-03-16T09:10:13.373Z,16.52
2023-03-16T09:12:40.890Z,16.52
2023-03-16T09:15:08.910Z,16.52
2023-03-16T09:17:36.281Z,16.53
2023-03-16T09:20:15.321Z,16.52
2023-03-16T09:22:46.045Z,16.52
2023-03-16T09:25:12.619Z,16.51
2023-03-16T09:27:39.135Z,16.53
2023-03-16T09:30:07.453Z,16.53
2023-03-16T09:32:35.163Z,16.53
2023-03-16T09:35:02.387Z,16.54
2023-03-16T09:37:35.338Z,16.56
2023-03-16T09:40:28.505Z,16.57
2023-03-16T09:43:16.066Z,16.61
2023-03-16T09:45:49.169Z,16.66
2023-03-16T09:48:17.164Z,16.71
2023-03-16T09:50:49.033Z,16.76
2023-03-16T09:53:34.245Z,16.82
2023-03-16T09:56:03.528Z,16.88
2023-03-16T09:58:32.152Z,16.94
2023-03-16T10:01:23.095Z,17.02
2023-03-16T10:04:02.088Z,17.11
2023-03-16T10:06:29.504Z,17.17
2023-03-16T10:09:24.624Z,17.22
2023-03-16T10:11:55.992Z,17.31
2023-03-16T10:14:27.486Z,17.38
2023-03-16T10:17:09.673Z,17.44
2023-03-16T10:19:39.151Z,17.51
2023-03-16T10:22:14.409Z,17.57
2023-03-16T10:25:02.551Z,17.62
2023-03-16T10:27:32.461Z,17.70
2023-03-16T10:30:01.649Z,17.74
2023-03-16T10:32:34.637Z,17.79
2023-03-16T10:35:20.768Z,17.83
2023-03-16T10:37:49.144Z,17.89
2023-03-16T10:40:16.242Z,17.91
2023-03-16T10:42:42.806Z,17.93
2023-03-16T10:45:35.547Z,17.92
2023-03-16T10:48:26.585Z,17.95
2023-03-16T10:50:57.618Z,17.94
2023-03-16T10:53:31.567Z,17.92
2023-03-16T10:56:00.284Z,17.91
2023-03-16T10:58:30.900Z,17.91
2023-03-16T11:00:57.879Z,17.89
2023-03-16T11:03:27.469Z,17.88
2023-03-16T11:06:02.763Z,17.87
2023-03-16T11:08:38.894Z,17.87
2023-03-16T11:11:16.882Z,17.85
2023-03-16T11:13:47.042Z,17.85
2023-03-16T11:16:38.218Z,17.83
2023-03-16T11:19:18.943Z,17.81
2023-03-16T11:21:55.213Z,17.81
2023-03-16T11:24:28.645Z,17.81
2023-03-16T11:26:58.804Z,17.81
2023-03-16T11:29:34.378Z,17.79
2023-03-16T11:32:15.382Z,17.81
2023-03-16T11:34:43.452Z,17.83
2023-03-16T11:37:23.660Z,17.82
2023-03-16T11:40:28.194Z,17.82
2023-03-16T11:43:13.156Z,17.83
2023-03-16T11:45:57.517Z,17.83
2023-03-16T11:48:36.613Z,17.84
2023-03-16T11:51:34.170Z,17.85
2023-03-16T11:54:58.210Z,17.84
2023-03-16T11:57:42.769Z,17.86
2023-03-16T12:00:16.701Z,17.87
2023-03-16T12:03:36.583Z,17.84
2023-03-16T12:06:40.980Z,17.86
2023-03-16T12:09:22.906Z,17.87
2023-03-16T12:12:00.083Z,17.88
2023-03-16T12:14:48.343Z,17.87
2023-03-16T12:17:25.780Z,17.89
2023-03-16T12:20:24.835Z,17.89
2023-03-16T12:23:14.759Z,17.88
2023-03-16T12:25:46.044Z,17.91
2023-03-16T12:28:26.104Z,17.89
2023-03-16T12:31:17.882Z,17.91
2023-03-16T12:34:19.070Z,17.88
2023-03-16T12:36:45.592Z,17.94
2023-03-16T12:39:24.862Z,18.02
2023-03-16T12:42:06.865Z,18.13
2023-03-16T12:44:57.362Z,18.25
2023-03-16T12:47:46.325Z,18.37
2023-03-16T12:50:16.726Z,18.50
2023-03-16T12:52:46.993Z,18.62
2023-03-16T12:55:19.692Z,18.73
2023-03-16T12:57:51.475Z,18.83
2023-03-16T13:00:19.688Z,18.93
2023-03-16T13:02:57.286Z,19.03
2023-03-16T13:05:32.208Z,19.13
2023-03-16T13:08:16.279Z,19.21
2023-03-16T13:10:43.838Z,19.29
2023-03-16T13:13:16.173Z,19.35
2023-03-16T13:15:47.284Z,19.38
2023-03-16T13:18:20.151Z,19.39
2023-03-16T13:20:57.382Z,19.38
2023-03-16T13:23:46.412Z,19.39
2023-03-16T13:26:16.256Z,19.38
2023-03-16T13:28:46.068Z,19.37
2023-03-16T13:31:24.084Z,19.36
2023-03-16T13:33:55.801Z,19.35
2023-03-16T13:36:23.940Z,19.34
2023-03-16T13:39:16.123Z,19.32
2023-03-16T13:41:43.589Z,19.34
2023-03-16T13:44:15.509Z,19.33
2023-03-16T13:46:42.058Z,19.34
2023-03-16T13:49:11.979Z,19.34
2023-03-16T13:51:38.568Z,19.32
2023-03-16T13:54:18.182Z,19.32
2023-03-16T13:56:45.261Z,19.32
2023-03-16T13:59:11.933Z,19.31
2023-03-16T14:01:39.164Z,19.30
2023-03-16T14:04:13.687Z,19.30
2023-03-16T14:06:41.345Z,19.30
2023-03-16T14:09:21.699Z,19.28
2023-03-16T14:11:48.807Z,19.28
2023-03-16T14:14:17.131Z,19.29
2023-03-16T14:16:44.285Z,19.28
2023-03-16T14:19:22.621Z,19.27
2023-03-16T14:21:49.695Z,19.27
2023-03-16T14:24:30.721Z,19.24
2023-03-16T14:26:58.367Z,19.26
2023-03-16T14:29:30.640Z,19.25
2023-03-16T14:31:58.877Z,19.23
2023-03-16T14:34:35.187Z,19.22
2023-03-16T14:37:13.719Z,19.24
2023-03-16T14:39:40.611Z,19.28
2023-03-16T14:42:17.973Z,19.32
2023-03-16T14:44:44.615Z,19.37
2023-03-16T14:47:22.771Z,19.40
2023-03-16T14:49:49.848Z,19.46
2023-03-16T14:52:29.827Z,19.52
2023-03-16T14:54:56.833Z,19.56
2023-03-16T14:57:24.535Z,19.60
2023-03-16T14:59:51.499Z,19.63
2023-03-16T15:02:30.550Z,19.63
2023-03-16T15:05:00.137Z,19.65
2023-03-16T15:07:32.797Z,19.64
2023-03-16T15:10:23.969Z,19.61
2023-03-16T15:12:54.029Z,19.61
2023-03-16T15:15:23.875Z,19.59
2023-03-16T15:17:52.424Z,19.57
2023-03-16T15:20:24.249Z,19.55
2023-03-16T15:22:53.010Z,19.52
2023-03-16T15:25:39.436Z,19.50
2023-03-16T15:28:19.544Z,19.48
2023-03-16T15:30:51.904Z,19.46
2023-03-16T15:33:18.974Z,19.44
2023-03-16T15:35:47.889Z,19.42
2023-03-16T15:38:39.705Z,19.41
2023-03-16T15:41:13.012Z,19.40
2023-03-16T15:43:39.776Z,19.39
2023-03-16T15:46:06.874Z,19.37
2023-03-16T15:48:34.288Z,19.36
2023-03-16T15:51:07.561Z,19.34
2023-03-16T15:53:43.557Z,19.33
2023-03-16T15:56:16.597Z,19.33
2023-03-16T15:58:45.872Z,19.32
2023-03-16T16:01:25.398Z,19.30
2023-03-16T16:03:53.959Z,19.30
2023-03-16T16:06:20.696Z,19.31
2023-03-16T16:08:47.200Z,19.31
2023-03-16T16:11:19.254Z,19.34
2023-03-16T16:13:46.443Z,19.38
2023-03-16T16:16:18.144Z,19.39
2023-03-16T16:18:46.672Z,19.42
2023-03-16T16:21:23.312Z,19.43
2023-03-16T16:23:52.203Z,19.46
2023-03-16T16:26:54.219Z,19.48
2023-03-16T16:29:33.686Z,19.49
2023-03-16T16:32:01.156Z,19.52
2023-03-16T16:34:28.173Z,19.52
2023-03-16T16:36:56.095Z,19.52
2023-03-16T16:39:22.718Z,19.51
2023-03-16T16:41:51.924Z,19.49
2023-03-16T16:44:23.498Z,19.48
2023-03-16T16:46:51.888Z,19.47
2023-03-16T16:49:22.546Z,19.47
2023-03-16T16:51:49.514Z,19.48
2023-03-16T16:54:25.529Z,19.47
2023-03-16T16:56:54.210Z,19.49
2023-03-16T16:59:31.394Z,19.51
2023-03-16T17:02:00.260Z,19.55
2023-03-16T17:04:28.872Z,19.60
2023-03-16T17:06:58.887Z,19.66
2023-03-16T17:09:27.762Z,19.72
2023-03-16T17:11:58.639Z,19.79
2023-03-16T17:14:27.611Z,19.85
2023-03-16T17:16:54.536Z,19.90
2023-03-16T17:19:27.784Z,19.92
2023-03-16T17:21:57.249Z,19.95
2023-03-16T17:24:24.420Z,19.95
2023-03-16T17:27:01.408Z,19.95
2023-03-16T17:29:33.642Z,19.96
2023-03-16T17:32:02.560Z,19.95
2023-03-16T17:34:32.277Z,19.93
2023-03-16T17:36:58.822Z,19.91
2023-03-16T17:39:31.629Z,19.89
2023-03-16T17:42:07.108Z,19.89
2023-03-16T17:44:38.027Z,19.91
2023-03-16T17:47:25.096Z,19.92
2023-03-16T17:49:52.317Z,19.92
2023-03-16T17:52:25.449Z,19.94
2023-03-16T17:54:53.585Z,19.94
2023-03-16T17:57:25.525Z,19.95
2023-03-16T17:59:52.236Z,19.94
2023-03-16T18:02:37.340Z,19.95
2023-03-16T18:05:05.604Z,19.95
2023-03-16T18:07:32.207Z,19.93
2023-03-16T18:09:59.106Z,19.94
2023-03-16T18:12:25.777Z,19.95
2023-03-16T18:14:58.375Z,19.95
2023-03-16T18:17:30.238Z,19.96
2023-03-16T18:19:57.370Z,19.96
2023-03-16T18:22:24.979Z,19.96
2023-03-16T18:24:53.877Z,19.96
2023-03-16T18:27:21.338Z,19.97
2023-03-16T18:29:48.777Z,19.97
2023-03-16T18:32:27.415Z,19.95
2023-03-16T18:34:54.318Z,19.97
2023-03-16T18:37:24.015Z,19.97
2023-03-16T18:39:52.370Z,19.97
2023-03-16T18:42:20.951Z,20.00
2023-03-16T18:44:48.642Z,20.03
2023-03-16T18:47:18.588Z,20.07
2023-03-16T18:49:49.334Z,20.10
2023-03-16T18:52:24.284Z,20.14
2023-03-16T18:54:52.890Z,20.16
2023-03-16T18:57:24.960Z,20.18
2023-03-16T18:59:51.655Z,20.20
2023-03-16T19:02:27.539Z,20.20
2023-03-16T19:04:58.001Z,20.19
2023-03-16T19:07:31.468Z,20.17
2023-03-16T19:10:06.470Z,20.15
2023-03-16T19:12:33.467Z,20.12
2023-03-16T19:15:00.414Z,20.09
2023-03-16T19:17:27.007Z,20.05
2023-03-16T19:19:53.523Z,20.01
2023-03-16T19:22:21.839Z,19.96
2023-03-16T19:24:54.261Z,19.92
2023-03-16T19:27:38.173Z,19.84
2023-03-16T19:30:05.201Z,19.81
2023-03-16T19:32:31.785Z,19.80
2023-03-16T19:34:58.497Z,19.73
2023-03-16T19:37:26.625Z,19.69
2023-03-16T19:39:53.440Z,19.64
2023-03-16T19:42:33.550Z,19.59
2023-03-16T19:45:00.317Z,19.54
2023-03-16T19:47:30.732Z,19.53
2023-03-16T19:49:58.963Z,19.48
2023-03-16T19:52:28.106Z,19.44
2023-03-16T19:54:54.721Z,19.40
2023-03-16T19:57:21.379Z,19.36
2023-03-16T19:59:53.148Z,19.32
2023-03-16T20:02:28.352Z,19.29
2023-03-16T20:04:56.292Z,19.27
2023-03-16T20:07:22.877Z,19.22
2023-03-16T20:09:49.785Z,19.18
2023-03-16T20:12:26.223Z,19.13
2023-03-16T20:14:53.797Z,19.09
2023-03-16T20:17:23.375Z,19.03
2023-03-16T20:19:51.328Z,18.97
2023-03-16T20:22:20.651Z,18.95
2023-03-16T20:24:51.144Z,18.91
2023-03-16T20:27:20.042Z,18.87
2023-03-16T20:29:46.913Z,18.82
2023-03-16T20:32:19.078Z,18.77
2023-03-16T20:34:46.453Z,18.73
2023-03-16T20:37:24.477Z,18.66
2023-03-16T20:39:52.010Z,18.61
2023-03-16T20:42:22.414Z,18.57
2023-03-16T20:44:48.983Z,18.54
2023-03-16T20:47:17.799Z,18.50
2023-03-16T20:49:44.638Z,18.46
2023-03-16T20:52:20.329Z,18.42
2023-03-16T20:54:47.471Z,18.39
2023-03-16T20:57:21.131Z,18.35
2023-03-16T20:59:49.241Z,18.31
2023-03-16T21:02:36.143Z,18.29
2023-03-16T21:05:06.145Z,18.27
2023-03-16T21:07:33.025Z,18.21
2023-03-16T21:09:59.710Z,18.19
2023-03-16T21:12:32.701Z,18.16
2023-03-16T21:15:00.469Z,18.13
2023-03-16T21:17:39.074Z,18.11
2023-03-16T21:20:15.974Z,18.07
2023-03-16T21:22:42.976Z,18.08
2023-03-16T21:25:18.819Z,18.03
2023-03-16T21:27:46.284Z,18.02
2023-03-16T21:30:38.284Z,17.99
2023-03-16T21:33:21.568Z,17.99
2023-03-16T21:35:48.236Z,17.97
2023-03-16T21:38:18.803Z,17.96
2023-03-16T21:40:46.795Z,17.93
2023-03-16T21:43:14.339Z,17.92
2023-03-16T21:45:41.549Z,17.90
2023-03-16T21:48:24.013Z,17.89
2023-03-16T21:50:52.365Z,17.87
2023-03-16T21:53:25.045Z,17.86
2023-03-16T21:55:52.149Z,17.85
2023-03-16T21:58:19.328Z,17.85
2023-03-16T22:00:47.107Z,17.84
2023-03-16T22:03:44.226Z,17.84
2023-03-16T22:06:16.594Z,17.86
2023-03-16T22:08:43.133Z,17.84
2023-03-16T22:11:16.955Z,17.81
2023-03-16T22:13:43.531Z,17.83
2023-03-16T22:16:15.976Z,17.82
2023-03-16T22:18:44.697Z,17.83
2023-03-16T22:21:24.945Z,17.80
2023-03-16T22:23:52.088Z,17.82
2023-03-16T22:26:20.563Z,17.81
2023-03-16T22:28:50.845Z,17.79
2023-03-16T22:31:21.003Z,17.79
2023-03-16T22:33:48.746Z,17.79
2023-03-16T22:36:18.508Z,17.79
2023-03-16T22:38:45.686Z,17.78
2023-03-16T22:41:15.727Z,17.80
2023-03-16T22:43:44.690Z,17.82
2023-03-16T22:46:25.433Z,17.84
2023-03-16T22:48:53.475Z,17.85
2023-03-16T22:51:24.912Z,17.85
2023-03-16T22:53:56.037Z,17.87
2023-03-16T22:56:24.134Z,17.85
2023-03-16T22:59:00.667Z,17.85
2023-03-16T23:01:44.576Z,17.85
2023-03-16T23:04:30.304Z,17.85
2023-03-16T23:06:57.314Z,17.86
2023-03-16T23:09:24.578Z,17.82
2023-03-16T23:11:54.107Z,17.84
2023-03-16T23:14:27.196Z,17.84
2023-03-16T23:16:53.952Z,17.84
2023-03-16T23:19:26.456Z,17.83
2023-03-16T23:21:55.639Z,17.82
2023-03-16T23:24:22.601Z,17.83
2023-03-16T23:26:50.645Z,17.82
2023-03-16T23:29:17.248Z,17.81
2023-03-16T23:31:44.044Z,17.82
2023-03-16T23:34:15.664Z,17.80
2023-03-16T23:36:43.221Z,17.80
2023-03-16T23:39:10.623Z,17.80
2023-03-16T23:41:39.635Z,17.81
2023-03-16T23:44:07.799Z,17.79
2023-03-16T23:46:35.177Z,17.77
2023-03-16T23:49:04.542Z,17.75
2023-03-16T23:51:36.037Z,17.75
2023-03-16T23:54:14.040Z,17.74
2023-03-16T23:56:40.884Z,17.73
2023-03-16T23:59:07.501Z,17.71
